sensor_id;sensor_type;location;lat;lon;timestamp;pressure;altitude;pressure_sealevel;temperature;humidity
60479;BME280;46321;48.398;11.754;2023-01-15T00:00:09;95739.75;;;7.70;53.27
60479;BME280;46321;48.398;11.754;2023-01-15T00:02:34;95739.47;;;7.65;53.70
60479;BME280;46321;48.398;11.754;2023-01-15T00:05:00;95730.34;;;7.52;53.18
60479;BME280;46321;48.398;11.754;2023-01-15T00:07:27;95728.63;;;7.60;53.06
60479;BME280;46321;48.398;11.754;2023-01-15T00:09:52;95724.47;;;7.65;52.89
60479;BME280;46321;48.398;11.754;2023-01-15T00:12:17;95719.75;;;7.61;52.31
60479;BME280;46321;48.398;11.754;2023-01-15T00:14:43;95711.72;;;7.54;53.35
60479;BME280;46321;48.398;11.754;2023-01-15T00:17:08;95707.28;;;7.54;52.35
60479;BME280;46321;48.398;11.754;2023-01-15T00:19:33;95700.34;;;7.53;52.77
60479;BME280;46321;48.398;11.754;2023-01-15T00:21:59;95696.50;;;7.41;52.69
60479;BME280;46321;48.398;11.754;2023-01-15T00:24:24;95702.47;;;7.35;53.26
60479;BME280;46321;48.398;11.754;2023-01-15T00:27:09;95702.38;;;7.19;53.57
60479;BME280;46321;48.398;11.754;2023-01-15T00:29:53;95688.00;;;7.30;53.38
60479;BME280;46321;48.398;11.754;2023-01-15T00:32:18;95693.16;;;7.47;53.02
60479;BME280;46321;48.398;11.754;2023-01-15T00:34:44;95691.81;;;7.51;52.70
60479;BME280;46321;48.398;11.754;2023-01-15T00:37:09;95692.13;;;7.56;52.73
60479;BME280;46321;48.398;11.754;2023-01-15T00:39:34;95692.28;;;7.55;54.01
60479;BME280;46321;48.398;11.754;2023-01-15T00:41:59;95680.75;;;7.56;52.70
60479;BME280;46321;48.398;11.754;2023-01-15T00:44:25;95682.41;;;7.57;53.59
60479;BME280;46321;48.398;11.754;2023-01-15T00:46:50;95687.31;;;7.60;53.80
60479;BME280;46321;48.398;11.754;2023-01-15T00:49:16;95684.44;;;7.47;54.92
60479;BME280;46321;48.398;11.754;2023-01-15T00:51:41;95676.06;;;7.43;54.97
60479;BME280;46321;48.398;11.754;2023-01-15T00:54:06;95685.78;;;7.42;54.85
60479;BME280;46321;48.398;11.754;2023-01-15T00:56:32;95676.13;;;7.35;55.77
60479;BME280;46321;48.398;11.754;2023-01-15T00:59:00;95682.38;;;7.33;56.09
60479;BME280;46321;48.398;11.754;2023-01-15T01:01:25;95672.50;;;7.36;56.73
60479;BME280;46321;48.398;11.754;2023-01-15T01:03:50;95676.53;;;7.23;57.70
60479;BME280;46321;48.398;11.754;2023-01-15T01:06:18;95677.25;;;7.17;57.48
60479;BME280;46321;48.398;11.754;2023-01-15T01:08:43;95676.03;;;7.19;57.57
60479;BME280;46321;48.398;11.754;2023-01-15T01:11:13;95681.56;;;7.09;59.00
60479;BME280;46321;48.398;11.754;2023-01-15T01:13:39;95685.69;;;7.04;57.91
60479;BME280;46321;48.398;11.754;2023-01-15T01:16:24;95667.69;;;7.16;57.90
60479;BME280;46321;48.398;11.754;2023-01-15T01:18:50;95661.09;;;6.88;59.06
60479;BME280;46321;48.398;11.754;2023-01-15T01:21:16;95664.50;;;6.97;59.34
60479;BME280;46321;48.398;11.754;2023-01-15T01:23:41;95673.16;;;7.06;59.25
60479;BME280;46321;48.398;11.754;2023-01-15T01:26:07;95665.63;;;7.03;59.94
60479;BME280;46321;48.398;11.754;2023-01-15T01:28:32;95643.81;;;6.94;60.45
60479;BME280;46321;48.398;11.754;2023-01-15T01:30:57;95654.16;;;6.95;59.83
60479;BME280;46321;48.398;11.754;2023-01-15T01:33:22;95647.94;;;6.56;61.01
60479;BME280;46321;48.398;11.754;2023-01-15T01:35:48;95634.94;;;6.63;61.06
60479;BME280;46321;48.398;11.754;2023-01-15T01:38:14;95629.91;;;6.76;60.77
60479;BME280;46321;48.398;11.754;2023-01-15T01:40:40;95625.91;;;6.89;60.57
60479;BME280;46321;48.398;11.754;2023-01-15T01:43:19;95618.84;;;6.90;61.27
60479;BME280;46321;48.398;11.754;2023-01-15T01:45:44;95620.59;;;6.97;61.12
60479;BME280;46321;48.398;11.754;2023-01-15T01:48:10;95630.41;;;7.04;60.68
60479;BME280;46321;48.398;11.754;2023-01-15T01:50:36;95609.88;;;6.75;62.48
60479;BME280;46321;48.398;11.754;2023-01-15T01:53:10;95614.09;;;6.85;62.00
60479;BME280;46321;48.398;11.754;2023-01-15T01:55:37;95607.13;;;6.92;62.08
60479;BME280;46321;48.398;11.754;2023-01-15T01:58:04;95602.16;;;6.97;62.48
60479;BME280;46321;48.398;11.754;2023-01-15T02:00:32;95613.28;;;6.84;62.16
60479;BME280;46321;48.398;11.754;2023-01-15T02:02:58;95600.75;;;6.63;63.90
60479;BME280;46321;48.398;11.754;2023-01-15T02:05:32;95595.75;;;6.68;63.70
60479;BME280;46321;48.398;11.754;2023-01-15T02:07:59;95580.50;;;6.63;63.63
60479;BME280;46321;48.398;11.754;2023-01-15T02:10:25;95588.88;;;6.67;64.23
60479;BME280;46321;48.398;11.754;2023-01-15T02:13:03;95584.72;;;6.41;64.76
60479;BME280;46321;48.398;11.754;2023-01-15T02:15:41;95566.94;;;6.43;64.97
60479;BME280;46321;48.398;11.754;2023-01-15T02:18:23;95566.94;;;6.51;63.93
60479;BME280;46321;48.398;11.754;2023-01-15T02:20:59;95563.81;;;6.48;64.84
60479;BME280;46321;48.398;11.754;2023-01-15T02:28:44;95549.69;;;6.49;65.56
60479;BME280;46321;48.398;11.754;2023-01-15T02:31:33;95546.09;;;6.41;65.77
60479;BME280;46321;48.398;11.754;2023-01-15T02:34:28;95543.94;;;6.45;66.37
60479;BME280;46321;48.398;11.754;2023-01-15T02:37:05;95544.25;;;6.50;66.92
60479;BME280;46321;48.398;11.754;2023-01-15T02:39:34;95530.00;;;6.45;68.89
60479;BME280;46321;48.398;11.754;2023-01-15T02:42:03;95525.19;;;6.48;69.06
60479;BME280;46321;48.398;11.754;2023-01-15T02:44:32;95525.75;;;6.35;67.92
60479;BME280;46321;48.398;11.754;2023-01-15T02:47:00;95533.47;;;6.37;66.95
60479;BME280;46321;48.398;11.754;2023-01-15T02:49:28;95536.88;;;6.46;66.99
60479;BME280;46321;48.398;11.754;2023-01-15T02:52:04;95531.63;;;6.46;67.82
60479;BME280;46321;48.398;11.754;2023-01-15T02:54:35;95534.88;;;6.48;67.10
60479;BME280;46321;48.398;11.754;2023-01-15T02:57:04;95524.75;;;6.45;67.69
60479;BME280;46321;48.398;11.754;2023-01-15T02:59:36;95540.16;;;6.48;68.32
60479;BME280;46321;48.398;11.754;2023-01-15T03:02:06;95543.16;;;6.45;69.97
60479;BME280;46321;48.398;11.754;2023-01-15T03:04:43;95515.50;;;6.17;69.31
60479;BME280;46321;48.398;11.754;2023-01-15T03:07:18;95515.00;;;6.22;67.14
60479;BME280;46321;48.398;11.754;2023-01-15T03:09:46;95546.16;;;6.33;67.71
60479;BME280;46321;48.398;11.754;2023-01-15T03:12:29;95524.09;;;6.43;69.18
60479;BME280;46321;48.398;11.754;2023-01-15T03:15:10;95510.19;;;6.25;67.46
60479;BME280;46321;48.398;11.754;2023-01-15T03:17:58;95499.09;;;6.15;67.62
60479;BME280;46321;48.398;11.754;2023-01-15T03:20:27;95507.75;;;6.24;67.64
60479;BME280;46321;48.398;11.754;2023-01-15T03:22:58;95509.34;;;6.33;68.13
60479;BME280;46321;48.398;11.754;2023-01-15T03:25:33;95506.34;;;6.36;68.55
60479;BME280;46321;48.398;11.754;2023-01-15T03:28:00;95515.00;;;6.22;68.50
60479;BME280;46321;48.398;11.754;2023-01-15T03:30:27;95511.34;;;6.31;69.45
60479;BME280;46321;48.398;11.754;2023-01-15T03:32:53;95507.56;;;6.25;71.72
60479;BME280;46321;48.398;11.754;2023-01-15T03:38:13;95507.75;;;6.24;72.11
60479;BME280;46321;48.398;11.754;2023-01-15T03:40:52;95497.25;;;6.24;72.64
60479;BME280;46321;48.398;11.754;2023-01-15T03:43:25;95496.59;;;6.22;71.77
60479;BME280;46321;48.398;11.754;2023-01-15T03:46:13;95490.69;;;6.20;73.30
60479;BME280;46321;48.398;11.754;2023-01-15T03:48:59;95491.00;;;6.25;73.73
60479;BME280;46321;48.398;11.754;2023-01-15T03:51:38;95481.66;;;6.22;74.03
60479;BME280;46321;48.398;11.754;2023-01-15T03:54:16;95474.94;;;6.20;73.28
60479;BME280;46321;48.398;11.754;2023-01-15T03:56:57;95473.41;;;6.25;73.77
60479;BME280;46321;48.398;11.754;2023-01-15T03:59:34;95471.13;;;6.22;73.27
60479;BME280;46321;48.398;11.754;2023-01-15T04:02:05;95468.97;;;6.26;71.73
60479;BME280;46321;48.398;11.754;2023-01-15T04:04:32;95467.88;;;6.20;72.41
60479;BME280;46321;48.398;11.754;2023-01-15T04:06:57;95451.59;;;6.25;72.27
60479;BME280;46321;48.398;11.754;2023-01-15T04:09:24;95447.13;;;6.25;72.76
60479;BME280;46321;48.398;11.754;2023-01-15T04:11:49;95462.91;;;6.25;74.13
60479;BME280;46321;48.398;11.754;2023-01-15T04:14:14;95458.81;;;6.23;74.33
60479;BME280;46321;48.398;11.754;2023-01-15T04:16:40;95458.47;;;6.26;74.26
60479;BME280;46321;48.398;11.754;2023-01-15T04:19:05;95461.09;;;6.26;74.80
60479;BME280;46321;48.398;11.754;2023-01-15T04:21:30;95462.56;;;6.28;75.14
60479;BME280;46321;48.398;11.754;2023-01-15T04:23:56;95462.75;;;6.27;75.79
60479;BME280;46321;48.398;11.754;2023-01-15T04:26:21;95472.44;;;6.26;74.81
60479;BME280;46321;48.398;11.754;2023-01-15T04:28:46;95469.97;;;6.25;75.18
60479;BME280;46321;48.398;11.754;2023-01-15T04:31:12;95450.28;;;6.21;75.74
60479;BME280;46321;48.398;11.754;2023-01-15T04:33:37;95464.59;;;6.18;75.88
60479;BME280;46321;48.398;11.754;2023-01-15T04:36:04;95447.00;;;6.18;76.22
60479;BME280;46321;48.398;11.754;2023-01-15T04:38:29;95438.22;;;5.94;77.50
60479;BME280;46321;48.398;11.754;2023-01-15T04:40:59;95437.22;;;6.04;77.13
60479;BME280;46321;48.398;11.754;2023-01-15T04:43:43;95425.19;;;6.10;77.37
60479;BME280;46321;48.398;11.754;2023-01-15T04:46:27;95416.84;;;6.06;77.27
60479;BME280;46321;48.398;11.754;2023-01-15T04:48:52;95428.31;;;6.13;76.60
60479;BME280;46321;48.398;11.754;2023-01-15T04:51:18;95425.06;;;6.11;76.12
60479;BME280;46321;48.398;11.754;2023-01-15T04:53:43;95430.44;;;6.18;75.81
60479;BME280;46321;48.398;11.754;2023-01-15T04:56:09;95424.00;;;6.21;75.87
60479;BME280;46321;48.398;11.754;2023-01-15T04:58:34;95420.72;;;6.18;75.98
60479;BME280;46321;48.398;11.754;2023-01-15T05:00:59;95418.72;;;6.21;75.91
60479;BME280;46321;48.398;11.754;2023-01-15T05:03:26;95420.91;;;6.17;75.98
60479;BME280;46321;48.398;11.754;2023-01-15T05:05:52;95409.22;;;6.20;75.63
60479;BME280;46321;48.398;11.754;2023-01-15T05:08:17;95413.13;;;6.24;75.33
60479;BME280;46321;48.398;11.754;2023-01-15T05:10:42;95410.22;;;6.18;75.18
60479;BME280;46321;48.398;11.754;2023-01-15T05:13:08;95408.88;;;6.23;75.60
60479;BME280;46321;48.398;11.754;2023-01-15T05:15:33;95400.53;;;6.19;76.26
60479;BME280;46321;48.398;11.754;2023-01-15T05:17:58;95399.88;;;6.17;76.01
60479;BME280;46321;48.398;11.754;2023-01-15T05:20:23;95399.25;;;6.15;76.94
60479;BME280;46321;48.398;11.754;2023-01-15T05:22:49;95407.13;;;6.15;76.79
60479;BME280;46321;48.398;11.754;2023-01-15T05:25:14;95406.94;;;6.16;76.42
60479;BME280;46321;48.398;11.754;2023-01-15T05:27:40;95409.94;;;6.13;76.78
60479;BME280;46321;48.398;11.754;2023-01-15T05:30:07;95413.06;;;6.09;76.75
60479;BME280;46321;48.398;11.754;2023-01-15T05:32:32;95404.03;;;6.11;76.64
60479;BME280;46321;48.398;11.754;2023-01-15T05:34:57;95405.84;;;6.11;76.70
60479;BME280;46321;48.398;11.754;2023-01-15T05:37:23;95408.94;;;6.14;76.72
60479;BME280;46321;48.398;11.754;2023-01-15T05:39:49;95412.56;;;6.13;76.42
60479;BME280;46321;48.398;11.754;2023-01-15T05:42:14;95404.56;;;6.06;77.03
60479;BME280;46321;48.398;11.754;2023-01-15T05:44:39;95397.50;;;6.07;77.01
60479;BME280;46321;48.398;11.754;2023-01-15T05:47:04;95398.78;;;6.11;76.64
60479;BME280;46321;48.398;11.754;2023-01-15T05:49:32;95402.03;;;6.13;76.62
60479;BME280;46321;48.398;11.754;2023-01-15T05:51:58;95403.66;;;6.14;76.71
60479;BME280;46321;48.398;11.754;2023-01-15T05:54:27;95398.41;;;6.14;76.85
60479;BME280;46321;48.398;11.754;2023-01-15T05:56:53;95401.22;;;6.13;77.24
60479;BME280;46321;48.398;11.754;2023-01-15T05:59:21;95396.59;;;6.15;77.06
60479;BME280;46321;48.398;11.754;2023-01-15T06:01:47;95394.97;;;6.14;77.30
60479;BME280;46321;48.398;11.754;2023-01-15T06:04:12;95397.59;;;6.14;77.48
60479;BME280;46321;48.398;11.754;2023-01-15T06:06:39;95397.13;;;6.10;77.41
60479;BME280;46321;48.398;11.754;2023-01-15T06:09:04;95403.66;;;6.14;77.54
60479;BME280;46321;48.398;11.754;2023-01-15T06:11:30;95397.13;;;6.10;76.96
60479;BME280;46321;48.398;11.754;2023-01-15T06:13:55;95405.84;;;6.11;77.12
60479;BME280;46321;48.398;11.754;2023-01-15T06:16:20;95401.56;;;6.10;77.86
60479;BME280;46321;48.398;11.754;2023-01-15T06:18:46;95404.38;;;6.08;77.79
60479;BME280;46321;48.398;11.754;2023-01-15T06:21:12;95403.84;;;6.13;77.85
60479;BME280;46321;48.398;11.754;2023-01-15T06:23:39;95396.50;;;6.08;78.17
60479;BME280;46321;48.398;11.754;2023-01-15T06:26:07;95397.59;;;6.14;78.05
60479;BME280;46321;48.398;11.754;2023-01-15T06:28:34;95403.84;;;6.13;77.72
60479;BME280;46321;48.398;11.754;2023-01-15T06:31:06;95380.72;;;6.08;77.58
60479;BME280;46321;48.398;11.754;2023-01-15T06:33:31;95386.63;;;6.10;77.91
60479;BME280;46321;48.398;11.754;2023-01-15T06:35:56;95390.41;;;6.07;77.77
60479;BME280;46321;48.398;11.754;2023-01-15T06:38:22;95386.16;;;6.06;77.55
60479;BME280;46321;48.398;11.754;2023-01-15T06:40:47;95390.25;;;6.09;77.70
60479;BME280;46321;48.398;11.754;2023-01-15T06:43:12;95390.91;;;6.11;77.64
60479;BME280;46321;48.398;11.754;2023-01-15T06:45:57;95393.97;;;6.15;77.46
60479;BME280;46321;48.398;11.754;2023-01-15T06:48:41;95392.34;;;6.14;77.65
60479;BME280;46321;48.398;11.754;2023-01-15T06:51:07;95382.19;;;6.11;77.55
60479;BME280;46321;48.398;11.754;2023-01-15T06:53:32;95384.63;;;6.12;77.21
60479;BME280;46321;48.398;11.754;2023-01-15T06:56:00;95381.66;;;6.15;77.35
60479;BME280;46321;48.398;11.754;2023-01-15T06:58:25;95385.63;;;6.11;78.00
60479;BME280;46321;48.398;11.754;2023-01-15T07:00:50;95380.19;;;6.13;77.77
60479;BME280;46321;48.398;11.754;2023-01-15T07:03:21;95381.03;;;6.13;77.40
60479;BME280;46321;48.398;11.754;2023-01-15T07:05:47;95386.91;;;6.15;76.93
60479;BME280;46321;48.398;11.754;2023-01-15T07:08:13;95371.16;;;6.15;75.67
60479;BME280;46321;48.398;11.754;2023-01-15T07:10:38;95381.09;;;6.28;74.32
60479;BME280;46321;48.398;11.754;2023-01-15T07:13:04;95376.59;;;6.37;74.18
60479;BME280;46321;48.398;11.754;2023-01-15T07:15:31;95375.88;;;6.44;74.56
60479;BME280;46321;48.398;11.754;2023-01-15T07:17:57;95378.53;;;6.59;73.85
60479;BME280;46321;48.398;11.754;2023-01-15T07:20:23;95367.78;;;6.69;73.75
60479;BME280;46321;48.398;11.754;2023-01-15T07:22:49;95359.66;;;6.79;73.93
60479;BME280;46321;48.398;11.754;2023-01-15T07:25:15;95361.91;;;6.97;74.39
60479;BME280;46321;48.398;11.754;2023-01-15T07:27:40;95357.56;;;7.04;75.05
60479;BME280;46321;48.398;11.754;2023-01-15T07:30:06;95353.47;;;7.47;75.00
60479;BME280;46321;48.398;11.754;2023-01-15T07:32:32;95357.69;;;7.78;74.72
60479;BME280;46321;48.398;11.754;2023-01-15T07:34:57;95353.06;;;8.02;74.22
60479;BME280;46321;48.398;11.754;2023-01-15T07:37:22;95353.84;;;8.18;73.63
60479;BME280;46321;48.398;11.754;2023-01-15T07:39:48;95350.97;;;8.35;73.42
60479;BME280;46321;48.398;11.754;2023-01-15T07:42:13;95353.22;;;8.60;72.55
60479;BME280;46321;48.398;11.754;2023-01-15T07:44:57;95345.78;;;8.70;72.11
60479;BME280;46321;48.398;11.754;2023-01-15T07:47:42;95355.25;;;8.87;71.80
60479;BME280;46321;48.398;11.754;2023-01-15T07:50:26;95365.22;;;8.91;71.91
60479;BME280;46321;48.398;11.754;2023-01-15T07:52:52;95343.34;;;8.98;71.46
60479;BME280;46321;48.398;11.754;2023-01-15T07:55:17;95365.75;;;9.09;71.44
60479;BME280;46321;48.398;11.754;2023-01-15T07:57:43;95351.38;;;9.18;70.93
60479;BME280;46321;48.398;11.754;2023-01-15T08:00:11;95335.38;;;9.26;70.79
60479;BME280;46321;48.398;11.754;2023-01-15T08:02:37;95335.63;;;9.32;70.17
60479;BME280;46321;48.398;11.754;2023-01-15T08:05:02;95338.09;;;9.40;70.40
60479;BME280;46321;48.398;11.754;2023-01-15T08:07:28;95346.03;;;9.47;69.90
60479;BME280;46321;48.398;11.754;2023-01-15T08:09:53;95344.44;;;9.59;69.14
60479;BME280;46321;48.398;11.754;2023-01-15T08:12:18;95346.13;;;9.67;68.88
60479;BME280;46321;48.398;11.754;2023-01-15T08:15:02;95347.56;;;9.70;68.44
60479;BME280;46321;48.398;11.754;2023-01-15T08:17:44;95343.50;;;9.74;68.12
60479;BME280;46321;48.398;11.754;2023-01-15T08:20:18;95334.78;;;9.87;67.74
60479;BME280;46321;48.398;11.754;2023-01-15T08:22:44;95333.38;;;9.91;67.22
60479;BME280;46321;48.398;11.754;2023-01-15T08:25:12;95339.06;;;9.95;66.96
60479;BME280;46321;48.398;11.754;2023-01-15T08:27:38;95348.88;;;10.01;66.61
60479;BME280;46321;48.398;11.754;2023-01-15T08:30:06;95338.28;;;10.01;66.66
60479;BME280;46321;48.398;11.754;2023-01-15T08:32:31;95328.94;;;10.05;66.56
60479;BME280;46321;48.398;11.754;2023-01-15T08:34:56;95344.22;;;10.10;65.49
60479;BME280;46321;48.398;11.754;2023-01-15T08:37:22;95321.22;;;10.17;65.29
60479;BME280;46321;48.398;11.754;2023-01-15T08:39:47;95339.94;;;10.23;64.92
60479;BME280;46321;48.398;11.754;2023-01-15T08:42:14;95333.47;;;10.32;64.13
60479;BME280;46321;48.398;11.754;2023-01-15T08:44:40;95329.38;;;10.36;64.16
60479;BME280;46321;48.398;11.754;2023-01-15T08:47:05;95315.94;;;10.38;64.18
60479;BME280;46321;48.398;11.754;2023-01-15T08:49:30;95328.16;;;10.39;63.66
60479;BME280;46321;48.398;11.754;2023-01-15T08:51:56;95325.72;;;10.44;63.35
60479;BME280;46321;48.398;11.754;2023-01-15T08:54:22;95319.66;;;10.50;62.79
60479;BME280;46321;48.398;11.754;2023-01-15T08:56:49;95294.59;;;10.60;62.12
60479;BME280;46321;48.398;11.754;2023-01-15T08:59:14;95314.16;;;10.65;62.01
60479;BME280;46321;48.398;11.754;2023-01-15T09:01:40;95305.19;;;10.73;61.49
60479;BME280;46321;48.398;11.754;2023-01-15T09:04:05;95313.13;;;10.73;62.02
60479;BME280;46321;48.398;11.754;2023-01-15T09:06:31;95311.69;;;10.84;61.23
60479;BME280;46321;48.398;11.754;2023-01-15T09:08:58;95301.28;;;10.90;61.82
60479;BME280;46321;48.398;11.754;2023-01-15T09:11:23;95309.00;;;10.98;60.63
60479;BME280;46321;48.398;11.754;2023-01-15T09:13:49;95297.63;;;11.04;60.97
60479;BME280;46321;48.398;11.754;2023-01-15T09:16:16;95289.22;;;11.07;61.11
60479;BME280;46321;48.398;11.754;2023-01-15T09:18:41;95299.81;;;11.14;60.71
60479;BME280;46321;48.398;11.754;2023-01-15T09:21:07;95305.31;;;11.19;61.31
60479;BME280;46321;48.398;11.754;2023-01-15T09:23:32;95293.50;;;11.22;60.59
60479;BME280;46321;48.398;11.754;2023-01-15T09:26:02;95294.69;;;11.26;60.64
60479;BME280;46321;48.398;11.754;2023-01-15T09:28:29;95297.91;;;11.35;60.70
60479;BME280;46321;48.398;11.754;2023-01-15T09:30:55;95294.84;;;11.38;60.79
60479;BME280;46321;48.398;11.754;2023-01-15T09:33:20;95302.78;;;11.38;60.58
60479;BME280;46321;48.398;11.754;2023-01-15T09:35:46;95292.19;;;11.38;60.28
60479;BME280;46321;48.398;11.754;2023-01-15T09:38:12;95290.94;;;11.48;60.17
60479;BME280;46321;48.398;11.754;2023-01-15T09:40:51;95295.97;;;11.56;60.34
60479;BME280;46321;48.398;11.754;2023-01-15T09:43:39;95290.03;;;11.67;60.87
60479;BME280;46321;48.398;11.754;2023-01-15T09:46:14;95295.88;;;11.76;59.93
60479;BME280;46321;48.398;11.754;2023-01-15T09:49:05;95307.75;;;11.74;59.65
60479;BME280;46321;48.398;11.754;2023-01-15T09:51:57;95314.13;;;11.59;59.54
60479;BME280;46321;48.398;11.754;2023-01-15T09:54:55;95332.31;;;11.49;60.88
60479;BME280;46321;48.398;11.754;2023-01-15T09:57:24;95371.28;;;11.28;64.05
60479;BME280;46321;48.398;11.754;2023-01-15T09:59:51;95397.00;;;11.07;66.24
60479;BME280;46321;48.398;11.754;2023-01-15T10:02:23;95406.97;;;10.77;67.73
60479;BME280;46321;48.398;11.754;2023-01-15T10:04:58;95428.69;;;10.39;67.82
60479;BME280;46321;48.398;11.754;2023-01-15T10:09:58;95433.03;;;9.98;69.33
60479;BME280;46321;48.398;11.754;2023-01-15T10:12:28;95430.56;;;9.89;70.29
60479;BME280;46321;48.398;11.754;2023-01-15T10:15:09;95438.53;;;9.54;71.65
60479;BME280;46321;48.398;11.754;2023-01-15T10:17:41;95429.41;;;9.56;71.38
60479;BME280;46321;48.398;11.754;2023-01-15T10:25:48;95450.88;;;9.18;71.71
60479;BME280;46321;48.398;11.754;2023-01-15T10:30:49;95488.69;;;8.96;72.27
60479;BME280;46321;48.398;11.754;2023-01-15T10:33:35;95502.69;;;8.97;72.45
60479;BME280;46321;48.398;11.754;2023-01-15T10:36:20;95506.03;;;8.62;72.97
60479;BME280;46321;48.398;11.754;2023-01-15T10:39:00;95517.31;;;8.40;72.59
60479;BME280;46321;48.398;11.754;2023-01-15T10:44:17;95478.97;;;8.75;71.69
60479;BME280;46321;48.398;11.754;2023-01-15T10:46:50;95522.44;;;8.42;70.71
60479;BME280;46321;48.398;11.754;2023-01-15T10:49:17;95503.41;;;8.46;69.95
60479;BME280;46321;48.398;11.754;2023-01-15T10:51:45;95482.00;;;8.19;70.17
60479;BME280;46321;48.398;11.754;2023-01-15T10:54:28;95522.91;;;8.00;71.15
60479;BME280;46321;48.398;11.754;2023-01-15T10:57:22;95539.28;;;8.10;71.12
60479;BME280;46321;48.398;11.754;2023-01-15T10:59:56;95550.38;;;7.90;70.92
60479;BME280;46321;48.398;11.754;2023-01-15T11:02:37;95552.81;;;8.07;70.67
60479;BME280;46321;48.398;11.754;2023-01-15T11:05:04;95553.66;;;8.08;70.31
60479;BME280;46321;48.398;11.754;2023-01-15T11:07:35;95556.28;;;7.93;70.56
60479;BME280;46321;48.398;11.754;2023-01-15T11:10:05;95571.38;;;7.99;70.32
60479;BME280;46321;48.398;11.754;2023-01-15T11:12:31;95574.53;;;7.79;69.21
60479;BME280;46321;48.398;11.754;2023-01-15T11:15:22;95583.34;;;7.86;69.69
60479;BME280;46321;48.398;11.754;2023-01-15T11:18:19;95581.50;;;7.56;68.35
60479;BME280;46321;48.398;11.754;2023-01-15T11:21:10;95584.56;;;7.45;68.71
60479;BME280;46321;48.398;11.754;2023-01-15T11:23:35;95589.19;;;7.43;68.62
60479;BME280;46321;48.398;11.754;2023-01-15T11:26:01;95584.16;;;7.33;68.36
60479;BME280;46321;48.398;11.754;2023-01-15T11:28:32;95598.13;;;7.33;68.35
60479;BME280;46321;48.398;11.754;2023-01-15T11:30:59;95600.97;;;7.32;67.86
60479;BME280;46321;48.398;11.754;2023-01-15T11:33:26;95596.41;;;7.26;68.28
60479;BME280;46321;48.398;11.754;2023-01-15T11:35:56;95592.34;;;7.15;68.62
60479;BME280;46321;48.398;11.754;2023-01-15T11:38:26;95604.84;;;7.13;67.89
60479;BME280;46321;48.398;11.754;2023-01-15T11:40:53;95607.84;;;7.09;68.67
60479;BME280;46321;48.398;11.754;2023-01-15T11:43:21;95612.31;;;7.09;69.47
60479;BME280;46321;48.398;11.754;2023-01-15T11:46:22;95611.19;;;7.03;69.72
60479;BME280;46321;48.398;11.754;2023-01-15T11:49:10;95619.81;;;6.89;70.50
60479;BME280;46321;48.398;11.754;2023-01-15T11:51:57;95620.97;;;6.86;70.15
60479;BME280;46321;48.398;11.754;2023-01-15T11:54:23;95608.34;;;6.81;69.70
60479;BME280;46321;48.398;11.754;2023-01-15T11:56:50;95608.22;;;6.74;70.78
60479;BME280;46321;48.398;11.754;2023-01-15T11:59:17;95600.56;;;6.64;70.96
60479;BME280;46321;48.398;11.754;2023-01-15T12:04:35;95629.09;;;6.76;70.77
60479;BME280;46321;48.398;11.754;2023-01-15T12:07:04;95631.25;;;6.72;70.87
60479;BME280;46321;48.398;11.754;2023-01-15T12:09:39;95648.22;;;6.61;70.50
60479;BME280;46321;48.398;11.754;2023-01-15T12:12:17;95662.75;;;6.49;71.50
60479;BME280;46321;48.398;11.754;2023-01-15T12:15:01;95676.69;;;6.58;70.83
60479;BME280;46321;48.398;11.754;2023-01-15T12:28:47;95712.22;;;6.37;72.24
60479;BME280;46321;48.398;11.754;2023-01-15T12:31:21;95712.91;;;6.30;72.44
60479;BME280;46321;48.398;11.754;2023-01-15T12:37:03;95725.88;;;6.24;72.20
60479;BME280;46321;48.398;11.754;2023-01-15T12:41:42;95739.50;;;6.27;72.21
60479;BME280;46321;48.398;11.754;2023-01-15T12:44:57;95746.91;;;6.32;72.23
60479;BME280;46321;48.398;11.754;2023-01-15T12:53:17;95758.25;;;6.24;72.68
60479;BME280;46321;48.398;11.754;2023-01-15T12:55:50;95760.38;;;6.12;73.80
60479;BME280;46321;48.398;11.754;2023-01-15T13:04:17;95767.59;;;6.18;73.94
60479;BME280;46321;48.398;11.754;2023-01-15T13:06:51;95782.72;;;6.08;74.05
60479;BME280;46321;48.398;11.754;2023-01-15T13:09:26;95781.38;;;6.04;74.41
60479;BME280;46321;48.398;11.754;2023-01-15T13:11:53;95783.72;;;6.07;74.61
60479;BME280;46321;48.398;11.754;2023-01-15T13:14:20;95786.16;;;6.00;75.15
60479;BME280;46321;48.398;11.754;2023-01-15T13:17:04;95798.13;;;5.94;75.39
60479;BME280;46321;48.398;11.754;2023-01-15T13:19:49;95799.28;;;6.00;75.61
60479;BME280;46321;48.398;11.754;2023-01-15T13:22:24;95802.72;;;6.01;75.16
60479;BME280;46321;48.398;11.754;2023-01-15T13:33:22;95813.88;;;5.94;76.09
60479;BME280;46321;48.398;11.754;2023-01-15T13:35:56;95816.50;;;5.86;76.10
60479;BME280;46321;48.398;11.754;2023-01-15T13:38:28;95810.44;;;5.86;75.55
60479;BME280;46321;48.398;11.754;2023-01-15T13:40:56;95831.28;;;5.79;75.78
60479;BME280;46321;48.398;11.754;2023-01-15T13:43:31;95853.94;;;5.80;75.91
60479;BME280;46321;48.398;11.754;2023-01-15T13:45:59;95847.97;;;5.69;77.25
60479;BME280;46321;48.398;11.754;2023-01-15T13:48:46;95860.94;;;5.63;76.22
60479;BME280;46321;48.398;11.754;2023-01-15T13:51:33;95876.34;;;5.57;76.17
60479;BME280;46321;48.398;11.754;2023-01-15T13:54:12;95879.59;;;5.51;75.51
60479;BME280;46321;48.398;11.754;2023-01-15T13:56:40;95884.84;;;5.51;75.53
60479;BME280;46321;48.398;11.754;2023-01-15T13:59:33;95894.38;;;5.52;75.43
60479;BME280;46321;48.398;11.754;2023-01-15T14:02:17;95899.59;;;5.44;75.45
60479;BME280;46321;48.398;11.754;2023-01-15T14:04:45;95908.09;;;5.37;76.21
60479;BME280;46321;48.398;11.754;2023-01-15T14:07:17;95923.53;;;5.41;76.03
60479;BME280;46321;48.398;11.754;2023-01-15T14:09:43;95923.97;;;5.27;76.18
60479;BME280;46321;48.398;11.754;2023-01-15T14:12:33;95918.50;;;5.21;76.80
60479;BME280;46321;48.398;11.754;2023-01-15T14:29:45;95953.47;;;4.76;76.16
60479;BME280;46321;48.398;11.754;2023-01-15T14:34:59;95961.09;;;4.69;76.59